San Antonio, Texas
Traffic Map
Current Weather Conditions
San Antonio, Texas
Scattered Clouds
Scattered Clouds
18°
Feels Like: 18°
Wind Chill: 18° Ceiling: Unl
Heat Index: 18° Visibility: 10mi
Dew Point: 17° Wind: 3mph
Humidity: 99% Direction: 320° (NW)
Pressure: 29.6in Gusts: 0mph
Raw Report DataKSKF 270958Z AUTO 32003KT 10SM SCT080 18/17 A2960 RMK AO2 SLP017 T01760174 $
Traffic Incident Summary
Active as of:
Severity:
Category:
InformationThere was an issue retrieving the traffic information for this location. Please try a different location or try again shortly.
Advertisements
Track Severe Weather on mobile